sensor_id;sensor_type;location;lat;lon;timestamp;P1;durP1;ratioP1;P2;durP2;ratioP2
72649;SDS011;61467;50.674;4.618;2023-07-20T00:02:02;7.65;;;1.80;;
72649;SDS011;61467;50.674;4.618;2023-07-20T00:04:31;7.75;;;2.13;;
72649;SDS011;61467;50.674;4.618;2023-07-20T00:06:58;7.13;;;2.08;;
72649;SDS011;61467;50.674;4.618;2023-07-20T00:09:25;6.90;;;1.80;;
72649;SDS011;61467;50.674;4.618;2023-07-20T00:11:52;5.40;;;2.05;;
72649;SDS011;61467;50.674;4.618;2023-07-20T00:14:21;7.43;;;1.80;;
72649;SDS011;61467;50.674;4.618;2023-07-20T00:16:49;7.70;;;2.20;;
72649;SDS011;61467;50.674;4.618;2023-07-20T00:19:21;7.10;;;1.88;;
72649;SDS011;61467;50.674;4.618;2023-07-20T00:21:48;7.07;;;1.90;;
72649;SDS011;61467;50.674;4.618;2023-07-20T00:24:15;7.88;;;2.20;;
72649;SDS011;61467;50.674;4.618;2023-07-20T00:26:42;6.63;;;2.03;;
72649;SDS011;61467;50.674;4.618;2023-07-20T00:29:10;6.85;;;2.38;;
72649;SDS011;61467;50.674;4.618;2023-07-20T00:31:38;6.53;;;2.08;;
72649;SDS011;61467;50.674;4.618;2023-07-20T00:34:05;7.80;;;2.10;;
72649;SDS011;61467;50.674;4.618;2023-07-20T00:36:32;6.78;;;2.58;;
72649;SDS011;61467;50.674;4.618;2023-07-20T00:38:59;5.95;;;2.00;;
72649;SDS011;61467;50.674;4.618;2023-07-20T00:41:25;7.90;;;2.63;;
72649;SDS011;61467;50.674;4.618;2023-07-20T00:43:54;7.60;;;2.60;;
72649;SDS011;61467;50.674;4.618;2023-07-20T00:46:21;8.20;;;2.20;;
72649;SDS011;61467;50.674;4.618;2023-07-20T00:48:51;9.82;;;2.40;;
72649;SDS011;61467;50.674;4.618;2023-07-20T00:51:18;8.27;;;2.20;;
72649;SDS011;61467;50.674;4.618;2023-07-20T00:53:46;8.15;;;2.42;;
72649;SDS011;61467;50.674;4.618;2023-07-20T00:56:13;8.07;;;2.75;;
72649;SDS011;61467;50.674;4.618;2023-07-20T00:58:40;9.53;;;1.97;;
72649;SDS011;61467;50.674;4.618;2023-07-20T01:01:06;7.50;;;1.88;;
72649;SDS011;61467;50.674;4.618;2023-07-20T01:03:33;8.45;;;1.90;;
72649;SDS011;61467;50.674;4.618;2023-07-20T01:06:04;8.77;;;2.10;;
72649;SDS011;61467;50.674;4.618;2023-07-20T01:08:43;6.40;;;1.80;;
72649;SDS011;61467;50.674;4.618;2023-07-20T01:11:22;8.97;;;2.20;;
72649;SDS011;61467;50.674;4.618;2023-07-20T01:14:01;7.93;;;1.80;;
72649;SDS011;61467;50.674;4.618;2023-07-20T01:16:29;6.28;;;1.77;;
72649;SDS011;61467;50.674;4.618;2023-07-20T01:18:56;7.40;;;2.03;;
72649;SDS011;61467;50.674;4.618;2023-07-20T01:21:26;6.32;;;1.85;;
72649;SDS011;61467;50.674;4.618;2023-07-20T01:24:05;8.27;;;2.17;;
72649;SDS011;61467;50.674;4.618;2023-07-20T01:29:57;6.82;;;1.80;;
72649;SDS011;61467;50.674;4.618;2023-07-20T01:32:38;6.65;;;2.38;;
72649;SDS011;61467;50.674;4.618;2023-07-20T01:35:08;9.13;;;2.72;;
72649;SDS011;61467;50.674;4.618;2023-07-20T01:37:39;8.53;;;2.40;;
72649;SDS011;61467;50.674;4.618;2023-07-20T01:40:08;7.05;;;1.90;;
72649;SDS011;61467;50.674;4.618;2023-07-20T01:42:37;7.70;;;2.30;;
72649;SDS011;61467;50.674;4.618;2023-07-20T01:45:04;8.45;;;2.72;;
72649;SDS011;61467;50.674;4.618;2023-07-20T01:47:31;7.10;;;2.35;;
72649;SDS011;61467;50.674;4.618;2023-07-20T01:49:59;7.83;;;2.30;;
72649;SDS011;61467;50.674;4.618;2023-07-20T01:52:26;7.47;;;2.53;;
72649;SDS011;61467;50.674;4.618;2023-07-20T01:54:53;11.35;;;2.45;;
72649;SDS011;61467;50.674;4.618;2023-07-20T01:57:20;8.13;;;2.60;;
72649;SDS011;61467;50.674;4.618;2023-07-20T01:59:46;8.52;;;2.03;;
72649;SDS011;61467;50.674;4.618;2023-07-20T02:02:13;6.67;;;2.53;;
72649;SDS011;61467;50.674;4.618;2023-07-20T02:04:40;7.47;;;2.22;;
72649;SDS011;61467;50.674;4.618;2023-07-20T02:07:08;10.63;;;2.33;;
72649;SDS011;61467;50.674;4.618;2023-07-20T02:09:35;8.45;;;2.10;;
72649;SDS011;61467;50.674;4.618;2023-07-20T02:12:02;8.77;;;2.20;;
72649;SDS011;61467;50.674;4.618;2023-07-20T02:14:29;8.80;;;2.53;;
72649;SDS011;61467;50.674;4.618;2023-07-20T02:16:56;8.18;;;2.40;;
72649;SDS011;61467;50.674;4.618;2023-07-20T02:19:24;11.25;;;2.58;;
72649;SDS011;61467;50.674;4.618;2023-07-20T02:21:51;8.43;;;2.50;;
72649;SDS011;61467;50.674;4.618;2023-07-20T02:24:20;8.10;;;2.50;;
72649;SDS011;61467;50.674;4.618;2023-07-20T02:26:46;8.73;;;2.73;;
72649;SDS011;61467;50.674;4.618;2023-07-20T02:29:13;9.07;;;3.05;;
72649;SDS011;61467;50.674;4.618;2023-07-20T02:31:40;8.45;;;2.80;;
72649;SDS011;61467;50.674;4.618;2023-07-20T02:34:08;11.07;;;2.65;;
72649;SDS011;61467;50.674;4.618;2023-07-20T02:36:35;9.10;;;2.80;;
72649;SDS011;61467;50.674;4.618;2023-07-20T02:39:02;7.50;;;2.37;;
72649;SDS011;61467;50.674;4.618;2023-07-20T02:41:31;9.07;;;2.60;;
72649;SDS011;61467;50.674;4.618;2023-07-20T02:43:59;8.82;;;2.70;;
72649;SDS011;61467;50.674;4.618;2023-07-20T02:46:26;10.80;;;3.35;;
72649;SDS011;61467;50.674;4.618;2023-07-20T02:48:55;12.07;;;3.13;;
72649;SDS011;61467;50.674;4.618;2023-07-20T02:51:22;11.63;;;2.67;;
72649;SDS011;61467;50.674;4.618;2023-07-20T02:53:48;9.43;;;3.25;;
72649;SDS011;61467;50.674;4.618;2023-07-20T02:56:15;10.00;;;2.75;;
72649;SDS011;61467;50.674;4.618;2023-07-20T02:58:44;10.27;;;2.85;;
72649;SDS011;61467;50.674;4.618;2023-07-20T03:01:11;11.35;;;3.67;;
72649;SDS011;61467;50.674;4.618;2023-07-20T03:03:40;11.30;;;3.37;;
72649;SDS011;61467;50.674;4.618;2023-07-20T03:06:11;11.90;;;3.03;;
72649;SDS011;61467;50.674;4.618;2023-07-20T03:08:39;9.68;;;3.30;;
72649;SDS011;61467;50.674;4.618;2023-07-20T03:11:12;11.40;;;3.25;;
72649;SDS011;61467;50.674;4.618;2023-07-20T03:13:39;10.93;;;3.42;;
72649;SDS011;61467;50.674;4.618;2023-07-20T03:16:07;11.13;;;2.80;;
72649;SDS011;61467;50.674;4.618;2023-07-20T03:18:36;10.00;;;3.08;;
72649;SDS011;61467;50.674;4.618;2023-07-20T03:21:03;6.97;;;2.80;;
72649;SDS011;61467;50.674;4.618;2023-07-20T03:23:30;9.13;;;3.10;;
72649;SDS011;61467;50.674;4.618;2023-07-20T03:25:57;11.00;;;3.08;;
72649;SDS011;61467;50.674;4.618;2023-07-20T03:28:23;12.20;;;3.10;;
72649;SDS011;61467;50.674;4.618;2023-07-20T03:30:52;11.18;;;3.53;;
72649;SDS011;61467;50.674;4.618;2023-07-20T03:33:21;11.13;;;3.50;;
72649;SDS011;61467;50.674;4.618;2023-07-20T03:35:48;9.27;;;3.65;;
72649;SDS011;61467;50.674;4.618;2023-07-20T03:38:14;8.95;;;3.17;;
72649;SDS011;61467;50.674;4.618;2023-07-20T03:40:48;8.83;;;3.23;;
72649;SDS011;61467;50.674;4.618;2023-07-20T03:43:15;8.80;;;2.92;;
72649;SDS011;61467;50.674;4.618;2023-07-20T03:45:42;9.82;;;3.05;;
72649;SDS011;61467;50.674;4.618;2023-07-20T03:48:09;8.75;;;3.33;;
72649;SDS011;61467;50.674;4.618;2023-07-20T03:50:37;12.40;;;3.53;;
72649;SDS011;61467;50.674;4.618;2023-07-20T03:53:04;8.27;;;3.60;;
72649;SDS011;61467;50.674;4.618;2023-07-20T03:55:31;11.57;;;3.42;;
72649;SDS011;61467;50.674;4.618;2023-07-20T03:57:58;12.52;;;3.53;;
72649;SDS011;61467;50.674;4.618;2023-07-20T04:00:25;10.60;;;3.60;;
72649;SDS011;61467;50.674;4.618;2023-07-20T04:02:51;9.77;;;3.25;;
72649;SDS011;61467;50.674;4.618;2023-07-20T04:05:19;7.87;;;3.23;;
72649;SDS011;61467;50.674;4.618;2023-07-20T04:07:47;10.48;;;3.45;;
72649;SDS011;61467;50.674;4.618;2023-07-20T04:10:14;13.10;;;4.03;;
72649;SDS011;61467;50.674;4.618;2023-07-20T04:12:41;9.40;;;3.47;;
72649;SDS011;61467;50.674;4.618;2023-07-20T04:15:09;11.30;;;4.15;;
72649;SDS011;61467;50.674;4.618;2023-07-20T04:17:36;12.57;;;3.80;;
72649;SDS011;61467;50.674;4.618;2023-07-20T04:20:03;10.60;;;3.85;;
72649;SDS011;61467;50.674;4.618;2023-07-20T04:22:31;12.60;;;4.15;;
72649;SDS011;61467;50.674;4.618;2023-07-20T04:24:59;10.13;;;3.92;;
72649;SDS011;61467;50.674;4.618;2023-07-20T04:27:26;12.10;;;4.35;;
72649;SDS011;61467;50.674;4.618;2023-07-20T04:29:53;13.80;;;4.20;;
72649;SDS011;61467;50.674;4.618;2023-07-20T04:32:19;12.27;;;4.25;;
72649;SDS011;61467;50.674;4.618;2023-07-20T04:34:46;12.00;;;4.00;;
72649;SDS011;61467;50.674;4.618;2023-07-20T04:37:13;12.18;;;4.75;;
72649;SDS011;61467;50.674;4.618;2023-07-20T04:39:40;15.70;;;4.00;;
72649;SDS011;61467;50.674;4.618;2023-07-20T04:42:08;10.67;;;4.10;;
72649;SDS011;61467;50.674;4.618;2023-07-20T04:44:35;8.77;;;4.13;;
72649;SDS011;61467;50.674;4.618;2023-07-20T04:47:02;10.82;;;4.15;;
72649;SDS011;61467;50.674;4.618;2023-07-20T04:49:29;9.55;;;3.60;;
72649;SDS011;61467;50.674;4.618;2023-07-20T04:51:56;12.10;;;4.35;;
72649;SDS011;61467;50.674;4.618;2023-07-20T04:54:22;11.13;;;4.00;;
72649;SDS011;61467;50.674;4.618;2023-07-20T04:56:49;13.35;;;5.22;;
72649;SDS011;61467;50.674;4.618;2023-07-20T04:59:17;11.05;;;4.43;;
72649;SDS011;61467;50.674;4.618;2023-07-20T05:01:44;14.50;;;4.88;;
72649;SDS011;61467;50.674;4.618;2023-07-20T05:04:11;9.63;;;4.00;;
72649;SDS011;61467;50.674;4.618;2023-07-20T05:06:38;11.93;;;4.67;;
72649;SDS011;61467;50.674;4.618;2023-07-20T05:09:05;13.27;;;4.57;;
72649;SDS011;61467;50.674;4.618;2023-07-20T05:11:33;9.57;;;3.90;;
72649;SDS011;61467;50.674;4.618;2023-07-20T05:14:00;12.15;;;4.53;;
72649;SDS011;61467;50.674;4.618;2023-07-20T05:16:28;10.90;;;4.05;;
72649;SDS011;61467;50.674;4.618;2023-07-20T05:18:55;10.90;;;4.43;;
72649;SDS011;61467;50.674;4.618;2023-07-20T05:21:23;10.70;;;4.50;;
72649;SDS011;61467;50.674;4.618;2023-07-20T05:23:49;11.52;;;5.10;;
72649;SDS011;61467;50.674;4.618;2023-07-20T05:26:16;10.43;;;4.57;;
72649;SDS011;61467;50.674;4.618;2023-07-20T05:28:43;12.73;;;4.53;;
72649;SDS011;61467;50.674;4.618;2023-07-20T05:31:10;10.80;;;4.53;;
72649;SDS011;61467;50.674;4.618;2023-07-20T05:33:38;11.80;;;4.65;;
72649;SDS011;61467;50.674;4.618;2023-07-20T05:36:05;11.52;;;5.60;;
72649;SDS011;61467;50.674;4.618;2023-07-20T05:38:32;14.35;;;5.13;;
72649;SDS011;61467;50.674;4.618;2023-07-20T05:40:59;12.02;;;4.70;;
72649;SDS011;61467;50.674;4.618;2023-07-20T05:43:27;14.47;;;5.37;;
72649;SDS011;61467;50.674;4.618;2023-07-20T05:45:53;13.10;;;5.20;;
72649;SDS011;61467;50.674;4.618;2023-07-20T05:48:20;13.45;;;5.72;;
72649;SDS011;61467;50.674;4.618;2023-07-20T05:50:49;14.07;;;6.18;;
72649;SDS011;61467;50.674;4.618;2023-07-20T05:53:16;13.35;;;6.00;;
72649;SDS011;61467;50.674;4.618;2023-07-20T05:55:51;18.50;;;6.80;;
72649;SDS011;61467;50.674;4.618;2023-07-20T05:58:18;12.68;;;5.43;;
72649;SDS011;61467;50.674;4.618;2023-07-20T06:00:47;14.95;;;5.97;;
72649;SDS011;61467;50.674;4.618;2023-07-20T06:03:14;13.88;;;5.85;;
72649;SDS011;61467;50.674;4.618;2023-07-20T06:05:41;13.10;;;5.93;;
72649;SDS011;61467;50.674;4.618;2023-07-20T06:08:09;15.30;;;6.37;;
72649;SDS011;61467;50.674;4.618;2023-07-20T06:10:36;14.13;;;5.82;;
72649;SDS011;61467;50.674;4.618;2023-07-20T06:13:03;15.85;;;5.85;;
72649;SDS011;61467;50.674;4.618;2023-07-20T06:15:31;16.45;;;6.05;;
72649;SDS011;61467;50.674;4.618;2023-07-20T06:18:00;14.60;;;5.90;;
72649;SDS011;61467;50.674;4.618;2023-07-20T06:20:28;14.27;;;6.23;;
72649;SDS011;61467;50.674;4.618;2023-07-20T06:22:55;15.20;;;7.18;;
72649;SDS011;61467;50.674;4.618;2023-07-20T06:25:24;17.60;;;8.40;;
72649;SDS011;61467;50.674;4.618;2023-07-20T06:27:51;15.10;;;7.22;;
72649;SDS011;61467;50.674;4.618;2023-07-20T06:30:17;16.55;;;7.20;;
72649;SDS011;61467;50.674;4.618;2023-07-20T06:32:44;18.33;;;7.83;;
72649;SDS011;61467;50.674;4.618;2023-07-20T06:35:11;15.77;;;7.57;;
72649;SDS011;61467;50.674;4.618;2023-07-20T06:37:38;15.45;;;7.53;;
72649;SDS011;61467;50.674;4.618;2023-07-20T06:40:06;16.08;;;7.60;;
72649;SDS011;61467;50.674;4.618;2023-07-20T06:42:35;15.18;;;7.63;;
72649;SDS011;61467;50.674;4.618;2023-07-20T06:45:02;15.57;;;7.33;;
72649;SDS011;61467;50.674;4.618;2023-07-20T06:47:30;17.50;;;7.75;;
72649;SDS011;61467;50.674;4.618;2023-07-20T06:49:56;15.63;;;8.15;;
72649;SDS011;61467;50.674;4.618;2023-07-20T06:52:23;18.45;;;7.82;;
72649;SDS011;61467;50.674;4.618;2023-07-20T06:54:50;15.73;;;7.28;;
72649;SDS011;61467;50.674;4.618;2023-07-20T06:57:17;13.40;;;6.83;;
72649;SDS011;61467;50.674;4.618;2023-07-20T06:59:45;16.90;;;7.35;;
72649;SDS011;61467;50.674;4.618;2023-07-20T07:02:12;14.75;;;7.03;;
72649;SDS011;61467;50.674;4.618;2023-07-20T07:04:39;15.45;;;6.72;;
72649;SDS011;61467;50.674;4.618;2023-07-20T07:07:06;13.77;;;6.25;;
72649;SDS011;61467;50.674;4.618;2023-07-20T07:09:32;12.83;;;6.70;;
72649;SDS011;61467;50.674;4.618;2023-07-20T07:11:59;14.38;;;6.72;;
72649;SDS011;61467;50.674;4.618;2023-07-20T07:14:26;14.48;;;6.80;;
72649;SDS011;61467;50.674;4.618;2023-07-20T07:16:54;13.85;;;6.88;;
72649;SDS011;61467;50.674;4.618;2023-07-20T07:19:22;13.68;;;6.03;;
72649;SDS011;61467;50.674;4.618;2023-07-20T07:21:49;13.23;;;7.10;;
72649;SDS011;61467;50.674;4.618;2023-07-20T07:24:16;14.80;;;6.53;;
72649;SDS011;61467;50.674;4.618;2023-07-20T07:26:43;10.98;;;5.95;;
72649;SDS011;61467;50.674;4.618;2023-07-20T07:29:10;14.13;;;6.20;;
72649;SDS011;61467;50.674;4.618;2023-07-20T07:31:37;16.45;;;7.25;;
72649;SDS011;61467;50.674;4.618;2023-07-20T07:34:05;12.03;;;5.30;;
72649;SDS011;61467;50.674;4.618;2023-07-20T07:36:32;12.48;;;5.10;;
72649;SDS011;61467;50.674;4.618;2023-07-20T07:38:59;10.30;;;4.53;;
72649;SDS011;61467;50.674;4.618;2023-07-20T07:41:26;10.77;;;5.10;;
72649;SDS011;61467;50.674;4.618;2023-07-20T07:43:53;9.80;;;4.32;;
72649;SDS011;61467;50.674;4.618;2023-07-20T07:46:20;7.50;;;2.93;;
72649;SDS011;61467;50.674;4.618;2023-07-20T07:48:46;9.02;;;3.67;;
72649;SDS011;61467;50.674;4.618;2023-07-20T07:51:15;9.52;;;3.38;;
72649;SDS011;61467;50.674;4.618;2023-07-20T07:53:42;8.75;;;3.50;;
72649;SDS011;61467;50.674;4.618;2023-07-20T07:56:09;8.38;;;3.50;;
72649;SDS011;61467;50.674;4.618;2023-07-20T07:58:36;9.50;;;3.13;;
72649;SDS011;61467;50.674;4.618;2023-07-20T08:01:03;5.60;;;2.30;;
72649;SDS011;61467;50.674;4.618;2023-07-20T08:03:30;5.65;;;2.15;;
72649;SDS011;61467;50.674;4.618;2023-07-20T08:05:57;6.00;;;2.00;;
72649;SDS011;61467;50.674;4.618;2023-07-20T08:08:26;7.50;;;2.22;;
72649;SDS011;61467;50.674;4.618;2023-07-20T08:10:53;8.33;;;2.20;;
72649;SDS011;61467;50.674;4.618;2023-07-20T08:13:20;5.30;;;2.03;;
72649;SDS011;61467;50.674;4.618;2023-07-20T08:15:48;5.90;;;2.80;;
72649;SDS011;61467;50.674;4.618;2023-07-20T08:18:17;5.70;;;2.40;;
72649;SDS011;61467;50.674;4.618;2023-07-20T08:20:44;5.80;;;2.40;;
72649;SDS011;61467;50.674;4.618;2023-07-20T08:23:11;5.27;;;2.10;;
72649;SDS011;61467;50.674;4.618;2023-07-20T08:25:40;5.65;;;2.35;;
72649;SDS011;61467;50.674;4.618;2023-07-20T08:28:09;6.18;;;2.53;;
72649;SDS011;61467;50.674;4.618;2023-07-20T08:30:40;4.80;;;1.92;;
72649;SDS011;61467;50.674;4.618;2023-07-20T08:33:08;5.75;;;2.50;;
72649;SDS011;61467;50.674;4.618;2023-07-20T08:35:36;6.37;;;2.10;;
72649;SDS011;61467;50.674;4.618;2023-07-20T08:38:02;7.15;;;2.10;;
72649;SDS011;61467;50.674;4.618;2023-07-20T08:40:30;6.40;;;2.70;;
72649;SDS011;61467;50.674;4.618;2023-07-20T08:42:59;6.10;;;2.75;;
72649;SDS011;61467;50.674;4.618;2023-07-20T08:45:27;5.20;;;2.30;;
72649;SDS011;61467;50.674;4.618;2023-07-20T08:47:55;6.60;;;2.40;;
72649;SDS011;61467;50.674;4.618;2023-07-20T08:50:23;5.82;;;2.78;;
72649;SDS011;61467;50.674;4.618;2023-07-20T08:52:52;7.85;;;2.80;;
72649;SDS011;61467;50.674;4.618;2023-07-20T08:55:20;7.07;;;3.10;;
72649;SDS011;61467;50.674;4.618;2023-07-20T08:57:48;5.82;;;2.70;;
72649;SDS011;61467;50.674;4.618;2023-07-20T09:00:18;6.07;;;2.87;;
72649;SDS011;61467;50.674;4.618;2023-07-20T09:02:48;5.72;;;2.55;;
72649;SDS011;61467;50.674;4.618;2023-07-20T09:05:16;6.65;;;2.38;;
72649;SDS011;61467;50.674;4.618;2023-07-20T09:07:43;5.78;;;2.33;;
72649;SDS011;61467;50.674;4.618;2023-07-20T09:10:10;6.10;;;2.13;;
72649;SDS011;61467;50.674;4.618;2023-07-20T09:12:38;6.17;;;2.43;;
72649;SDS011;61467;50.674;4.618;2023-07-20T09:15:06;6.38;;;2.10;;
72649;SDS011;61467;50.674;4.618;2023-07-20T09:17:38;6.93;;;2.00;;
72649;SDS011;61467;50.674;4.618;2023-07-20T09:20:05;5.80;;;1.92;;
72649;SDS011;61467;50.674;4.618;2023-07-20T09:22:35;6.00;;;2.40;;
72649;SDS011;61467;50.674;4.618;2023-07-20T09:25:03;7.83;;;2.93;;
72649;SDS011;61467;50.674;4.618;2023-07-20T09:27:35;6.00;;;2.25;;
72649;SDS011;61467;50.674;4.618;2023-07-20T09:30:03;6.07;;;2.30;;
72649;SDS011;61467;50.674;4.618;2023-07-20T09:32:35;6.28;;;2.50;;
72649;SDS011;61467;50.674;4.618;2023-07-20T09:35:07;6.22;;;2.42;;
72649;SDS011;61467;50.674;4.618;2023-07-20T09:37:38;7.27;;;2.20;;
72649;SDS011;61467;50.674;4.618;2023-07-20T09:40:06;5.45;;;2.15;;
72649;SDS011;61467;50.674;4.618;2023-07-20T09:42:34;6.43;;;2.17;;
72649;SDS011;61467;50.674;4.618;2023-07-20T09:45:03;6.75;;;2.03;;
72649;SDS011;61467;50.674;4.618;2023-07-20T09:47:33;7.88;;;2.10;;
72649;SDS011;61467;50.674;4.618;2023-07-20T09:50:05;5.40;;;2.13;;
72649;SDS011;61467;50.674;4.618;2023-07-20T09:52:35;4.93;;;2.00;;
72649;SDS011;61467;50.674;4.618;2023-07-20T09:55:04;5.82;;;1.90;;
72649;SDS011;61467;50.674;4.618;2023-07-20T09:57:32;5.63;;;2.10;;
72649;SDS011;61467;50.674;4.618;2023-07-20T10:00:01;6.13;;;2.25;;
72649;SDS011;61467;50.674;4.618;2023-07-20T10:02:30;5.53;;;2.47;;
72649;SDS011;61467;50.674;4.618;2023-07-20T10:05:04;7.10;;;2.30;;
72649;SDS011;61467;50.674;4.618;2023-07-20T10:07:33;5.50;;;2.20;;
72649;SDS011;61467;50.674;4.618;2023-07-20T10:10:02;4.57;;;1.85;;
72649;SDS011;61467;50.674;4.618;2023-07-20T10:12:31;7.05;;;2.33;;
72649;SDS011;61467;50.674;4.618;2023-07-20T10:14:59;6.70;;;2.20;;
72649;SDS011;61467;50.674;4.618;2023-07-20T10:17:37;5.93;;;2.13;;
72649;SDS011;61467;50.674;4.618;2023-07-20T10:20:11;7.00;;;2.13;;
72649;SDS011;61467;50.674;4.618;2023-07-20T10:22:38;5.32;;;2.00;;
72649;SDS011;61467;50.674;4.618;2023-07-20T10:25:06;5.68;;;1.80;;
72649;SDS011;61467;50.674;4.618;2023-07-20T10:27:33;5.03;;;1.63;;
72649;SDS011;61467;50.674;4.618;2023-07-20T10:30:00;5.65;;;2.30;;
72649;SDS011;61467;50.674;4.618;2023-07-20T10:32:29;6.20;;;2.28;;
72649;SDS011;61467;50.674;4.618;2023-07-20T10:34:56;5.63;;;2.20;;
72649;SDS011;61467;50.674;4.618;2023-07-20T10:40:27;6.30;;;2.03;;
72649;SDS011;61467;50.674;4.618;2023-07-20T10:43:01;5.93;;;2.20;;
72649;SDS011;61467;50.674;4.618;2023-07-20T10:45:37;5.45;;;2.15;;
72649;SDS011;61467;50.674;4.618;2023-07-20T10:48:12;6.00;;;2.25;;
72649;SDS011;61467;50.674;4.618;2023-07-20T10:50:40;6.07;;;2.25;;
72649;SDS011;61467;50.674;4.618;2023-07-20T10:53:13;5.20;;;2.10;;
72649;SDS011;61467;50.674;4.618;2023-07-20T10:55:41;6.25;;;2.20;;
72649;SDS011;61467;50.674;4.618;2023-07-20T10:58:13;6.25;;;2.00;;
72649;SDS011;61467;50.674;4.618;2023-07-20T11:00:56;6.72;;;2.30;;
72649;SDS011;61467;50.674;4.618;2023-07-20T11:03:31;5.10;;;2.17;;
72649;SDS011;61467;50.674;4.618;2023-07-20T11:06:00;5.80;;;2.00;;
72649;SDS011;61467;50.674;4.618;2023-07-20T11:09:04;4.90;;;2.10;;
72649;SDS011;61467;50.674;4.618;2023-07-20T11:11:36;5.25;;;2.42;;
72649;SDS011;61467;50.674;4.618;2023-07-20T11:14:04;4.85;;;1.75;;
72649;SDS011;61467;50.674;4.618;2023-07-20T11:16:36;8.02;;;2.47;;
72649;SDS011;61467;50.674;4.618;2023-07-20T11:19:05;6.80;;;1.97;;
72649;SDS011;61467;50.674;4.618;2023-07-20T11:21:37;5.25;;;2.08;;
72649;SDS011;61467;50.674;4.618;2023-07-20T11:24:06;5.15;;;2.00;;
72649;SDS011;61467;50.674;4.618;2023-07-20T11:26:41;5.00;;;2.28;;
72649;SDS011;61467;50.674;4.618;2023-07-20T11:29:09;5.10;;;2.30;;
72649;SDS011;61467;50.674;4.618;2023-07-20T11:31:36;6.27;;;2.40;;
72649;SDS011;61467;50.674;4.618;2023-07-20T11:34:04;5.22;;;1.95;;
72649;SDS011;61467;50.674;4.618;2023-07-20T11:36:31;6.15;;;2.10;;
72649;SDS011;61467;50.674;4.618;2023-07-20T11:38:58;4.90;;;1.98;;
72649;SDS011;61467;50.674;4.618;2023-07-20T11:41:27;7.28;;;2.40;;
72649;SDS011;61467;50.674;4.618;2023-07-20T11:43:54;5.33;;;2.20;;
72649;SDS011;61467;50.674;4.618;2023-07-20T11:46:21;6.20;;;2.30;;
72649;SDS011;61467;50.674;4.618;2023-07-20T11:48:48;6.45;;;2.90;;
72649;SDS011;61467;50.674;4.618;2023-07-20T11:51:15;4.97;;;1.92;;
72649;SDS011;61467;50.674;4.618;2023-07-20T11:53:43;6.55;;;2.63;;
72649;SDS011;61467;50.674;4.618;2023-07-20T11:56:12;4.90;;;1.90;;
72649;SDS011;61467;50.674;4.618;2023-07-20T11:58:43;5.55;;;2.05;;
72649;SDS011;61467;50.674;4.618;2023-07-20T12:01:11;5.63;;;2.33;;
72649;SDS011;61467;50.674;4.618;2023-07-20T12:03:38;5.97;;;2.38;;
72649;SDS011;61467;50.674;4.618;2023-07-20T12:06:08;5.32;;;2.35;;
72649;SDS011;61467;50.674;4.618;2023-07-20T12:08:37;5.77;;;2.20;;
72649;SDS011;61467;50.674;4.618;2023-07-20T12:11:06;6.35;;;2.65;;
72649;SDS011;61467;50.674;4.618;2023-07-20T12:13:40;6.70;;;2.22;;
72649;SDS011;61467;50.674;4.618;2023-07-20T12:16:11;5.38;;;2.50;;
72649;SDS011;61467;50.674;4.618;2023-07-20T12:18:39;7.15;;;2.38;;
72649;SDS011;61467;50.674;4.618;2023-07-20T12:21:06;5.27;;;2.23;;
72649;SDS011;61467;50.674;4.618;2023-07-20T12:23:37;5.30;;;2.30;;
72649;SDS011;61467;50.674;4.618;2023-07-20T12:26:08;5.35;;;2.28;;
72649;SDS011;61467;50.674;4.618;2023-07-20T12:28:38;6.60;;;2.42;;
72649;SDS011;61467;50.674;4.618;2023-07-20T12:31:08;5.13;;;1.90;;
72649;SDS011;61467;50.674;4.618;2023-07-20T12:33:35;6.27;;;2.27;;
72649;SDS011;61467;50.674;4.618;2023-07-20T12:36:03;5.40;;;1.90;;
72649;SDS011;61467;50.674;4.618;2023-07-20T12:38:31;5.93;;;2.80;;
72649;SDS011;61467;50.674;4.618;2023-07-20T12:40:59;5.43;;;2.00;;
72649;SDS011;61467;50.674;4.618;2023-07-20T12:43:26;5.50;;;1.88;;
72649;SDS011;61467;50.674;4.618;2023-07-20T12:45:53;4.50;;;1.50;;
72649;SDS011;61467;50.674;4.618;2023-07-20T12:48:22;4.95;;;1.77;;
72649;SDS011;61467;50.674;4.618;2023-07-20T12:50:49;6.28;;;1.55;;
72649;SDS011;61467;50.674;4.618;2023-07-20T12:53:16;5.05;;;1.55;;
72649;SDS011;61467;50.674;4.618;2023-07-20T12:55:43;4.13;;;1.45;;
72649;SDS011;61467;50.674;4.618;2023-07-20T12:58:10;4.20;;;1.50;;
72649;SDS011;61467;50.674;4.618;2023-07-20T13:00:38;5.05;;;1.33;;
72649;SDS011;61467;50.674;4.618;2023-07-20T13:03:06;5.20;;;1.50;;
72649;SDS011;61467;50.674;4.618;2023-07-20T13:05:35;3.42;;;1.00;;
72649;SDS011;61467;50.674;4.618;2023-07-20T13:08:02;5.22;;;1.50;;
72649;SDS011;61467;50.674;4.618;2023-07-20T13:10:30;5.40;;;1.30;;
72649;SDS011;61467;50.674;4.618;2023-07-20T13:12:57;6.55;;;1.40;;
72649;SDS011;61467;50.674;4.618;2023-07-20T13:15:24;4.97;;;1.50;;
72649;SDS011;61467;50.674;4.618;2023-07-20T13:17:56;6.68;;;1.40;;
72649;SDS011;61467;50.674;4.618;2023-07-20T13:20:23;3.78;;;1.13;;
72649;SDS011;61467;50.674;4.618;2023-07-20T13:22:52;7.67;;;1.47;;
72649;SDS011;61467;50.674;4.618;2023-07-20T13:25:19;4.25;;;1.48;;
72649;SDS011;61467;50.674;4.618;2023-07-20T13:27:46;5.25;;;1.45;;
72649;SDS011;61467;50.674;4.618;2023-07-20T13:30:13;5.18;;;1.40;;
72649;SDS011;61467;50.674;4.618;2023-07-20T13:32:41;4.40;;;1.27;;
72649;SDS011;61467;50.674;4.618;2023-07-20T13:35:08;4.07;;;1.50;;
72649;SDS011;61467;50.674;4.618;2023-07-20T13:37:35;4.43;;;1.48;;
72649;SDS011;61467;50.674;4.618;2023-07-20T13:40:07;4.35;;;1.33;;
72649;SDS011;61467;50.674;4.618;2023-07-20T13:42:37;4.40;;;1.00;;
72649;SDS011;61467;50.674;4.618;2023-07-20T13:45:05;3.70;;;1.35;;
72649;SDS011;61467;50.674;4.618;2023-07-20T13:47:33;5.30;;;1.40;;
72649;SDS011;61467;50.674;4.618;2023-07-20T13:49:59;5.78;;;1.70;;
72649;SDS011;61467;50.674;4.618;2023-07-20T13:52:27;6.15;;;1.55;;
72649;SDS011;61467;50.674;4.618;2023-07-20T13:54:54;4.80;;;1.50;;
72649;SDS011;61467;50.674;4.618;2023-07-20T13:57:22;4.30;;;1.40;;
72649;SDS011;61467;50.674;4.618;2023-07-20T13:59:49;4.33;;;1.20;;
72649;SDS011;61467;50.674;4.618;2023-07-20T14:02:16;4.18;;;1.50;;
72649;SDS011;61467;50.674;4.618;2023-07-20T14:04:42;4.43;;;1.40;;
72649;SDS011;61467;50.674;4.618;2023-07-20T14:07:09;5.40;;;1.77;;
72649;SDS011;61467;50.674;4.618;2023-07-20T14:09:36;4.93;;;1.60;;
72649;SDS011;61467;50.674;4.618;2023-07-20T14:12:04;4.80;;;1.63;;
72649;SDS011;61467;50.674;4.618;2023-07-20T14:14:32;4.47;;;1.50;;
72649;SDS011;61467;50.674;4.618;2023-07-20T14:16:59;5.18;;;1.45;;
72649;SDS011;61467;50.674;4.618;2023-07-20T14:19:26;5.18;;;1.80;;
72649;SDS011;61467;50.674;4.618;2023-07-20T14:21:53;5.00;;;1.67;;
72649;SDS011;61467;50.674;4.618;2023-07-20T14:24:20;4.17;;;1.50;;
72649;SDS011;61467;50.674;4.618;2023-07-20T14:26:47;4.70;;;1.48;;
72649;SDS011;61467;50.674;4.618;2023-07-20T14:29:14;5.43;;;1.30;;
72649;SDS011;61467;50.674;4.618;2023-07-20T14:31:42;4.20;;;1.50;;
72649;SDS011;61467;50.674;4.618;2023-07-20T14:34:09;5.60;;;1.48;;
72649;SDS011;61467;50.674;4.618;2023-07-20T14:36:36;5.47;;;1.70;;
72649;SDS011;61467;50.674;4.618;2023-07-20T14:39:02;5.95;;;1.90;;
72649;SDS011;61467;50.674;4.618;2023-07-20T14:41:30;6.38;;;1.77;;
72649;SDS011;61467;50.674;4.618;2023-07-20T14:43:57;4.50;;;1.73;;
72649;SDS011;61467;50.674;4.618;2023-07-20T14:46:23;4.60;;;1.83;;
72649;SDS011;61467;50.674;4.618;2023-07-20T14:48:52;5.83;;;2.03;;
72649;SDS011;61467;50.674;4.618;2023-07-20T14:51:19;5.72;;;2.50;;
72649;SDS011;61467;50.674;4.618;2023-07-20T14:53:45;6.00;;;2.20;;
72649;SDS011;61467;50.674;4.618;2023-07-20T14:56:12;5.43;;;2.50;;